Time;durP1;ratioP1;P1;durP2;ratioP2;P2;SDS_P1;SDS_P2;PMS_P1;PMS_P2;Temp;Humidity;BMP_temperature;BMP_pressure;BME280_temperature;BME280_humidity;BME280_pressure;Samples;Min_cycle;Max_cycle;Signal;HPM_P1;HPM_P2
2022/08/09 00:01:25;;;;;;;2.05;0.50;;;;;;;;;;5033902;28;20049;-44
2022/08/09 00:03:51;;;;;;;1.27;0.50;;;;;;;;;;5033760;28;20101;-44
2022/08/09 00:06:17;;;;;;;1.45;0.65;;;;;;;;;;5033702;28;20025;-44
2022/08/09 00:08:47;;;;;;;0.52;0.50;;;;;;;;;;5033582;28;20388;-44
2022/08/09 00:11:13;;;;;;;0.68;0.20;;;;;;;;;;5032681;28;20480;-45
2022/08/09 00:13:39;;;;;;;1.52;0.55;;;;;;;;;;5033614;28;20171;-45
2022/08/09 00:16:05;;;;;;;0.57;0.40;;;;;;;;;;5033992;28;20079;-44
2022/08/09 00:18:32;;;;;;;0.65;0.65;;;25.20;57.60;;;;;;5033616;28;20029;-46
2022/08/09 00:20:58;;;;;;;1.58;0.57;;;25.00;91.20;;;;;;5033402;28;20503;-44
2022/08/09 00:23:23;;;;;;;0.90;0.52;;;;;;;;;;5033449;28;20109;-44
2022/08/09 00:25:49;;;;;;;0.82;0.50;;;25.20;91.30;;;;;;5033622;28;20039;-44
2022/08/09 00:28:15;;;;;;;0.93;0.60;;;;;;;;;;5033514;28;20025;-45
2022/08/09 00:30:41;;;;;;;0.65;0.38;;;25.20;74.40;;;;;;5015579;28;20036;-43
2022/08/09 00:33:07;;;;;;;1.50;0.50;;;;;;;;;;5033682;28;20036;-45
2022/08/09 00:35:33;;;;;;;1.55;0.50;;;;;;;;;;5033352;28;20079;-44
2022/08/09 00:37:59;;;;;;;1.00;0.57;;;;;;;;;;5033335;28;20034;-45
2022/08/09 00:40:25;;;;;;;0.98;0.70;;;;;;;;;;5033214;28;20028;-45
2022/08/09 00:42:51;;;;;;;1.27;0.75;;;;;;;;;;5033226;28;20041;-45
2022/08/09 00:45:17;;;;;;;1.02;0.40;;;;;;;;;;5033275;28;20026;-45
2022/08/09 00:47:43;;;;;;;1.05;0.50;;;25.30;57.90;;;;;;5033106;28;20527;-43
2022/08/09 00:50:09;;;;;;;0.50;0.40;;;;;;;;;;5033080;28;20032;-46
2022/08/09 00:52:35;;;;;;;1.58;0.60;;;25.20;57.80;;;;;;5032996;28;20094;-44
2022/08/09 00:55:02;;;;;;;0.95;0.43;;;25.10;56.30;;;;;;5032984;28;20033;-45
2022/08/09 00:57:29;;;;;;;0.77;0.55;;;24.90;91.30;;;;;;5033190;28;20021;-45
2022/08/09 00:59:55;;;;;;;1.35;0.57;;;;;;;;;;5032969;28;20395;-45
2022/08/09 01:02:26;;;;;;;2.05;0.50;;;24.70;91.30;;;;;;5032612;28;20104;-45
2022/08/09 01:04:59;;;;;;;1.08;0.40;;;25.10;91.40;;;;;;5032721;28;20029;-43
2022/08/09 01:07:45;;;;;;;1.08;0.47;;;25.10;57.90;;;;;;5032804;28;20018;-45
2022/08/09 01:10:27;;;;;;;0.82;0.63;;;25.10;53.20;;;;;;5032843;28;20530;-45
2022/08/09 01:13:05;;;;;;;0.52;0.50;;;25.40;91.50;;;;;;5032549;28;20035;-45
2022/08/09 01:15:44;;;;;;;1.30;0.77;;;25.40;74.10;;;;;;5032773;28;20017;-44
2022/08/09 01:18:23;;;;;;;0.80;0.60;;;25.20;91.50;;;;;;5032749;28;20044;-44
2022/08/09 01:21:07;;;;;;;1.08;0.70;;;25.10;55.50;;;;;;5032745;28;20026;-44
2022/08/09 01:24:00;;;;;;;1.85;0.68;;;25.50;80.70;;;;;;5014842;28;20037;-44
2022/08/09 01:26:49;;;;;;;1.17;0.40;;;24.70;91.30;;;;;;5032614;28;20078;-45
2022/08/09 01:29:27;;;;;;;0.70;0.50;;;26.90;54.50;;;;;;5032407;28;20021;-45
2022/08/09 01:32:02;;;;;;;0.52;0.45;;;25.10;53.20;;;;;;5031821;28;20025;-44
2022/08/09 01:34:36;;;;;;;0.90;0.40;;;25.50;91.40;;;;;;5032480;28;20029;-47
2022/08/09 01:37:09;;;;;;;0.98;0.60;;;25.00;54.40;;;;;;5032415;28;20538;-46
2022/08/09 01:39:44;;;;;;;1.60;0.50;;;25.30;68.60;;;;;;5031882;28;20369;-46
2022/08/09 01:42:15;;;;;;;0.63;0.40;;;24.90;91.30;;;;;;5032353;28;20067;-46
2022/08/09 01:44:47;;;;;;;0.88;0.40;;;25.40;91.60;;;;;;5032581;28;20040;-47
2022/08/09 01:47:18;;;;;;;1.02;0.60;;;25.50;53.60;;;;;;5032413;28;20507;-47
2022/08/09 01:49:51;;;;;;;1.38;0.60;;;25.30;67.70;;;;;;5032242;28;20033;-46
2022/08/09 01:52:24;;;;;;;1.02;0.45;;;25.00;53.30;;;;;;5032294;28;20025;-50
2022/08/09 01:54:58;;;;;;;0.82;0.40;;;25.20;91.60;;;;;;5032266;28;20037;-43
2022/08/09 01:57:48;;;;;;;1.33;0.50;;;25.00;56.10;;;;;;5032129;28;20036;-47
2022/08/09 02:00:19;;;;;;;0.80;0.43;;;25.30;91.50;;;;;;5032077;28;20057;-49
2022/08/09 02:02:51;;;;;;;1.23;0.60;;;25.10;91.30;;;;;;5031613;28;20045;-46
2022/08/09 02:05:27;;;;;;;0.55;0.38;;;25.00;91.10;;;;;;5032249;28;20468;-45
2022/08/09 02:08:05;;;;;;;2.95;0.50;;;24.70;74.00;;;;;;5032113;28;20052;-44
2022/08/09 02:10:39;;;;;;;1.17;0.47;;;24.90;53.20;;;;;;5031949;28;20034;-44
2022/08/09 02:13:13;;;;;;;1.10;0.52;;;24.70;90.90;;;;;;5032369;28;20499;-45
2022/08/09 02:15:50;;;;;;;2.08;0.47;;;24.60;90.60;;;;;;5032190;28;20057;-46
2022/08/09 02:18:29;;;;;;;1.27;0.60;;;24.50;91.40;;;;;;5032245;28;20030;-45
2022/08/09 02:21:07;;;;;;;1.55;0.68;;;25.20;63.40;;;;;;5032030;28;20022;-44
2022/08/09 02:23:52;;;;;;;1.23;0.40;;;25.30;69.60;;;;;;5031902;28;20045;-44
2022/08/09 02:26:25;;;;;;;1.60;0.50;;;24.70;91.50;;;;;;5032045;28;20395;-44
2022/08/09 02:28:59;;;;;;;1.38;0.45;;;25.20;61.50;;;;;;5032070;28;20032;-45
2022/08/09 02:31:41;;;;;;;0.80;0.60;;;25.10;91.70;;;;;;5032087;28;20049;-44
2022/08/09 02:34:33;;;;;;;1.95;0.60;;;25.10;91.70;;;;;;5014132;28;20026;-44
2022/08/09 02:37:06;;;;;;;0.80;0.52;;;24.60;91.50;;;;;;5032033;28;20125;-45
2022/08/09 02:39:49;;;;;;;0.47;0.45;;;24.80;53.50;;;;;;5031921;28;20467;-45
2022/08/09 02:42:27;;;;;;;1.38;0.60;;;24.60;91.60;;;;;;5032048;28;20100;-43
2022/08/09 02:45:20;;;;;;;2.35;0.40;;;24.50;91.50;;;;;;5035605;28;20556;-44
2022/08/09 02:47:52;;;;;;;0.68;0.55;;;25.00;91.40;;;;;;5035518;28;20112;-45
2022/08/09 02:50:29;;;;;;;1.48;0.55;;;24.50;91.50;;;;;;5035281;28;20037;-46
2022/08/09 02:53:08;;;;;;;1.05;0.60;;;24.40;91.40;;;;;;5035373;28;20026;-44
2022/08/09 02:55:42;;;;;;;1.70;0.45;;;24.80;53.50;;;;;;5035483;28;20557;-44
2022/08/09 02:58:14;;;;;;;0.32;0.32;;;24.90;91.60;;;;;;5035427;28;20030;-45
2022/08/09 03:00:48;;;;;;;1.10;0.50;;;25.10;91.60;;;;;;5035392;28;20541;-45
2022/08/09 03:03:20;;;;;;;1.33;0.60;;;25.10;91.70;;;;;;5034798;28;20049;-45
2022/08/09 03:05:55;;;;;;;1.83;0.75;;;24.40;91.50;;;;;;5035180;28;20061;-44
2022/08/09 03:08:28;;;;;;;2.90;0.80;;;25.00;91.70;;;;;;5034920;28;20022;-45
2022/08/09 03:11:01;;;;;;;2.88;0.68;;;25.10;91.70;;;;;;5035045;28;20029;-44
2022/08/09 03:13:33;;;;;;;0.65;0.50;;;24.40;91.50;;;;;;5035250;28;20029;-44
2022/08/09 03:16:05;;;;;;;3.13;0.55;;;24.50;91.40;;;;;;5035166;28;20104;-45
2022/08/09 03:18:37;;;;;;;0.98;0.45;;;24.40;91.50;;;;;;5035120;28;20388;-44
2022/08/09 03:21:09;;;;;;;1.35;0.50;;;24.50;76.80;;;;;;5034726;28;20471;-44
2022/08/09 03:23:45;;;;;;;1.52;0.68;;;24.50;91.40;;;;;;5034900;28;20041;-45
2022/08/09 03:26:22;;;;;;;0.75;0.50;;;24.90;78.40;;;;;;5034928;28;20421;-45
2022/08/09 03:28:57;;;;;;;1.08;0.50;;;25.00;91.60;;;;;;5016940;28;20553;-45
2022/08/09 03:31:30;;;;;;;1.08;0.68;;;24.30;91.10;;;;;;5034963;28;20033;-44
2022/08/09 03:34:02;;;;;;;1.55;0.43;;;24.60;91.50;;;;;;5034889;28;20079;-44
2022/08/09 03:36:33;;;;;;;0.88;0.50;;;24.40;91.40;;;;;;5034749;28;20520;-44
2022/08/09 03:39:06;;;;;;;0.57;0.40;;;24.20;86.50;;;;;;5034791;28;20498;-45
2022/08/09 03:41:41;;;;;;;1.02;0.60;;;24.50;91.50;;;;;;5034645;28;20032;-45
2022/08/09 03:44:11;;;;;;;0.50;0.50;;;24.80;80.50;;;;;;5034504;28;20034;-45
2022/08/09 03:46:43;;;;;;;0.52;0.50;;;25.10;91.60;;;;;;5034510;28;20033;-45
2022/08/09 03:49:16;;;;;;;1.05;0.70;;;24.30;91.10;;;;;;5034435;28;20023;-46
2022/08/09 03:51:50;;;;;;;2.10;0.40;;;25.10;91.60;;;;;;5034459;28;20535;-44
2022/08/09 03:54:22;;;;;;;0.85;0.60;;;24.40;91.30;;;;;;5033719;28;20088;-43
2022/08/09 03:56:54;;;;;;;1.48;0.60;;;24.60;91.60;;;;;;5034008;28;20033;-44
2022/08/09 03:59:26;;;;;;;0.95;0.55;;;24.70;53.30;;;;;;5016556;28;20040;-44
2022/08/09 04:01:59;;;;;;;0.70;0.40;;;24.70;57.10;;;;;;5034342;28;20013;-44
2022/08/09 04:04:32;;;;;;;1.08;0.45;;;24.20;91.30;;;;;;5012902;28;20107;-44
2022/08/09 04:07:03;;;;;;;1.45;0.70;;;25.00;91.60;;;;;;5014494;28;20438;-44
2022/08/09 04:09:37;;;;;;;0.93;0.43;;;24.40;88.00;;;;;;5014368;28;20083;-45
2022/08/09 04:12:14;;;;;;;2.78;0.40;;;24.90;54.20;;;;;;5014268;28;20101;-47
2022/08/09 04:14:45;;;;;;;0.50;0.40;;;24.70;53.20;;;;;;5014373;28;20087;-49
2022/08/09 04:17:16;;;;;;;1.80;0.57;;;25.00;91.50;;;;;;5014204;28;20080;-47
2022/08/09 04:19:48;;;;;;;1.17;0.63;;;24.70;53.20;;;;;;5014205;28;20036;-45
2022/08/09 04:22:19;;;;;;;1.27;0.60;;;24.60;53.20;;;;;;5014158;28;20061;-44
2022/08/09 04:24:50;;;;;;;0.73;0.40;;;24.30;91.50;;;;;;5013733;28;20046;-44
2022/08/09 04:27:21;;;;;;;1.80;0.65;;;24.10;91.40;;;;;;5014182;28;20156;-44
2022/08/09 04:29:52;;;;;;;1.13;0.50;;;24.10;80.00;;;;;;5013977;28;20034;-45
2022/08/09 04:32:25;;;;;;;1.73;0.60;;;24.50;91.40;;;;;;5014142;28;20380;-44
2022/08/09 04:34:56;;;;;;;1.38;0.60;;;25.00;91.50;;;;;;5013991;28;20106;-44
2022/08/09 04:37:27;;;;;;;0.50;0.50;;;25.00;91.60;;;;;;5013917;28;20029;-45
2022/08/09 04:39:58;;;;;;;1.25;0.52;;;24.30;91.50;;;;;;5013720;28;20057;-44
2022/08/09 04:42:30;;;;;;;0.52;0.30;;;24.40;91.40;;;;;;5013796;28;20029;-44
2022/08/09 04:45:03;;;;;;;0.52;0.40;;;24.90;91.60;;;;;;5013611;28;20435;-45
2022/08/09 04:47:34;;;;;;;0.98;0.55;;;24.20;53.20;;;;;;5013677;28;20084;-44
2022/08/09 04:50:06;;;;;;;1.50;0.60;;;24.40;91.40;;;;;;5013647;28;20526;-43
2022/08/09 04:52:38;;;;;;;0.85;0.43;;;24.90;91.50;;;;;;5013592;28;20220;-44
2022/08/09 04:55:10;;;;;;;0.57;0.40;;;24.30;91.40;;;;;;5013489;28;20039;-43
2022/08/09 04:57:41;;;;;;;2.95;0.50;;;24.40;91.40;;;;;;5013568;28;20025;-44
2022/08/09 05:00:13;;;;;;;0.85;0.32;;;24.00;59.70;;;;;;5013592;28;20026;-44
2022/08/09 05:02:46;;;;;;;1.48;0.60;;;24.50;53.20;;;;;;5016933;28;20084;-45
2022/08/09 05:05:13;;;;;;;1.13;0.40;;;24.40;72.30;;;;;;5033346;28;20132;-44
2022/08/09 05:07:43;;;;;;;1.15;0.60;;;24.30;91.40;;;;;;5029965;28;20068;-44
2022/08/09 05:10:14;;;;;;;2.15;0.50;;;24.90;91.60;;;;;;5032989;28;20071;-45
2022/08/09 05:12:47;;;;;;;1.75;0.70;;;24.50;53.10;;;;;;5032973;28;20022;-45
2022/08/09 05:15:19;;;;;;;1.10;0.60;;;24.80;91.30;;;;;;5032404;28;20029;-45
2022/08/09 05:17:51;;;;;;;1.48;0.52;;;24.30;80.60;;;;;;5032851;28;20534;-44
2022/08/09 05:20:27;;;;;;;1.70;0.85;;;24.70;91.50;;;;;;5032817;28;20025;-44
2022/08/09 05:22:59;;;;;;;1.10;0.60;;;24.70;91.30;;;;;;5032792;28;20079;-45
2022/08/09 05:25:29;;;;;;;0.93;0.63;;;24.20;58.10;;;;;;5032738;28;20029;-45
2022/08/09 05:28:01;;;;;;;2.30;0.77;;;24.20;69.10;;;;;;5032727;28;20060;-44
2022/08/09 05:30:33;;;;;;;0.55;0.52;;;24.50;53.10;;;;;;5032811;28;20036;-45
2022/08/09 05:33:04;;;;;;;1.42;0.80;;;24.80;74.40;;;;;;5014855;28;20049;-45
2022/08/09 05:35:35;;;;;;;0.73;0.50;;;24.60;53.20;;;;;;5032483;28;20030;-45
2022/08/09 05:38:06;;;;;;;0.65;0.60;;;24.80;91.60;;;;;;5032842;28;20053;-44
2022/08/09 05:40:36;;;;;;;1.63;0.57;;;24.50;53.10;;;;;;5032505;28;20025;-44
2022/08/09 05:43:09;;;;;;;1.48;0.60;;;24.30;91.50;;;;;;5032381;28;20033;-44
2022/08/09 05:45:40;;;;;;;0.90;0.60;;;24.20;80.30;;;;;;5032474;28;20114;-47
2022/08/09 05:48:13;;;;;;;1.38;0.63;;;24.90;91.40;;;;;;5032336;28;20472;-45
2022/08/09 05:50:44;;;;;;;1.10;0.63;;;24.00;57.60;;;;;;5032413;28;20435;-47
2022/08/09 05:53:14;;;;;;;2.38;0.45;;;24.70;91.40;;;;;;5032513;28;20079;-50
2022/08/09 05:55:49;;;;;;;1.95;0.98;;;24.50;91.30;;;;;;5032608;28;20044;-51
2022/08/09 05:58:21;;;;;;;1.27;1.05;;;24.70;81.00;;;;;;5032395;28;20051;-50
2022/08/09 06:00:52;;;;;;;1.40;0.73;;;24.70;53.60;;;;;;5014295;28;20026;-50
2022/08/09 06:03:23;;;;;;;0.98;0.82;;;24.30;91.50;;;;;;5031770;28;20053;-51
2022/08/09 06:05:54;;;;;;;1.38;0.60;;;24.90;91.60;;;;;;5031971;28;20391;-50
2022/08/09 06:08:24;;;;;;;1.38;0.80;;;24.60;91.50;;;;;;5031253;28;20099;-51
2022/08/09 06:10:56;;;;;;;0.95;0.70;;;24.60;53.20;;;;;;5031915;28;20030;-51
2022/08/09 06:13:29;;;;;;;2.22;0.95;;;24.60;73.00;;;;;;5032183;28;20072;-50
2022/08/09 06:16:00;;;;;;;0.75;0.73;;;24.60;53.20;;;;;;5032081;28;20029;-50
2022/08/09 06:18:31;;;;;;;2.72;0.82;;;24.70;54.80;;;;;;5016550;28;20187;-51
2022/08/09 06:21:02;;;;;;;1.83;0.95;;;24.60;91.50;;;;;;5035554;28;20071;-51
2022/08/09 06:23:34;;;;;;;1.48;0.70;;;24.10;91.40;;;;;;5035957;28;20037;-50
2022/08/09 06:26:06;;;;;;;2.47;1.00;;;24.70;91.60;;;;;;5035969;28;20022;-47
2022/08/09 06:28:36;;;;;;;1.27;0.88;;;24.40;91.50;;;;;;5036149;28;20045;-51
2022/08/09 06:31:07;;;;;;;4.57;1.40;;;24.60;53.30;;;;;;5035868;28;20488;-47
2022/08/09 06:33:38;;;;;;;5.60;1.35;;;24.40;91.40;;;;;;5036144;28;20029;-51
2022/08/09 06:36:11;;;;;;;1.92;0.70;;;24.50;91.50;;;;;;5035791;28;20068;-49
2022/08/09 06:38:45;;;;;;;4.78;0.93;;;24.60;91.60;;;;;;5035778;28;20034;-51
2022/08/09 06:41:15;;;;;;;4.82;1.00;;;24.50;53.50;;;;;;5035889;28;20453;-45
2022/08/09 06:43:46;;;;;;;2.70;1.02;;;24.40;91.60;;;;;;5034994;28;20033;-50
2022/08/09 06:46:24;;;;;;;3.85;0.88;;;24.50;53.40;;;;;;5034968;28;20026;-46
2022/08/09 06:48:59;;;;;;;2.38;1.10;;;24.40;61.60;;;;;;5034200;28;20060;-44
2022/08/09 06:51:30;;;;;;;1.23;0.85;;;24.30;91.60;;;;;;5035320;28;20104;-48
2022/08/09 06:54:01;;;;;;;2.78;1.00;;;24.50;81.10;;;;;;5035802;28;20024;-48
2022/08/09 06:56:34;;;;;;;2.42;0.85;;;24.50;91.50;;;;;;5035403;28;20476;-47
2022/08/09 06:59:09;;;;;;;3.30;1.17;;;24.70;61.50;;;;;;5034466;28;20075;-47
2022/08/09 07:01:40;;;;;;;1.60;0.70;;;24.60;56.50;;;;;;5034374;28;20503;-47
2022/08/09 07:04:11;;;;;;;2.75;1.10;;;24.60;91.60;;;;;;5034394;28;20423;-48
2022/08/09 07:06:42;;;;;;;1.95;0.93;;;24.60;53.30;;;;;;5034691;28;20426;-48
2022/08/09 07:09:15;;;;;;;3.95;0.90;;;24.60;84.10;;;;;;5034990;28;20040;-48
2022/08/09 07:11:45;;;;;;;0.90;0.70;;;24.60;54.90;;;;;;5034885;28;20024;-46
2022/08/09 07:14:19;;;;;;;14.57;0.90;;;24.30;65.80;;;;;;5035132;28;20029;-49
2022/08/09 07:16:50;;;;;;;2.40;0.90;;;24.70;55.00;;;;;;5035090;28;20380;-49
2022/08/09 07:19:21;;;;;;;1.70;0.80;;;24.30;91.50;;;;;;5034776;28;20032;-49
2022/08/09 07:21:52;;;;;;;0.95;0.73;;;24.70;67.10;;;;;;5034991;28;20025;-50
2022/08/09 07:24:23;;;;;;;1.80;0.85;;;24.40;90.30;;;;;;5034949;28;20036;-48
2022/08/09 07:26:54;;;;;;;1.70;1.00;;;24.70;54.30;;;;;;5034850;28;20025;-49
2022/08/09 07:29:25;;;;;;;1.92;0.88;;;24.50;91.50;;;;;;5033693;28;20021;-49
2022/08/09 07:31:59;;;;;;;3.97;0.80;;;24.50;53.40;;;;;;5035068;28;20108;-50
2022/08/09 07:34:30;;;;;;;1.25;0.60;;;24.70;90.60;;;;;;5034905;28;20427;-47
2022/08/09 07:37:02;;;;;;;1.38;0.60;;;24.60;56.60;;;;;;5034665;28;20033;-48
2022/08/09 07:39:32;;;;;;;3.22;1.00;;;24.80;81.70;;;;;;5017130;28;20084;-50
2022/08/09 07:42:04;;;;;;;1.23;0.73;;;24.70;53.40;;;;;;5034792;28;20037;-48
2022/08/09 07:44:35;;;;;;;2.35;0.80;;;24.10;91.60;;;;;;5034757;28;20041;-49
2022/08/09 07:47:06;;;;;;;0.75;0.50;;;24.80;91.00;;;;;;5034513;28;20030;-49
2022/08/09 07:49:38;;;;;;;2.42;0.73;;;24.50;53.50;;;;;;5034465;28;20107;-50
2022/08/09 07:52:10;;;;;;;1.23;0.70;;;24.30;91.50;;;;;;5034387;28;20029;-48
2022/08/09 07:54:42;;;;;;;1.65;0.90;;;27.40;55.30;;;;;;5034172;28;20403;-46
2022/08/09 07:57:13;;;;;;;2.20;0.70;;;24.70;91.50;;;;;;5034272;28;20033;-47
2022/08/09 07:59:44;;;;;;;3.63;0.65;;;24.90;91.40;;;;;;5034431;28;20083;-47
2022/08/09 08:02:16;;;;;;;1.30;0.80;;;24.70;91.40;;;;;;5034456;28;20029;-48
2022/08/09 08:04:47;;;;;;;2.25;0.73;;;24.50;91.30;;;;;;5034728;28;20059;-48
2022/08/09 08:07:19;;;;;;;1.58;0.70;;;24.40;74.80;;;;;;5034274;28;20025;-48
2022/08/09 08:09:50;;;;;;;0.50;0.50;;;25.00;91.00;;;;;;5034306;28;20079;-46
2022/08/09 08:12:21;;;;;;;0.98;0.60;;;24.80;53.20;;;;;;5033573;28;20479;-47
2022/08/09 08:14:54;;;;;;;0.73;0.60;;;24.40;91.00;;;;;;5033944;28;20021;-47
2022/08/09 08:17:25;;;;;;;1.35;0.70;;;24.60;53.00;;;;;;5033955;28;20021;-48
2022/08/09 08:23:19;;;;;;;1.95;0.90;;;24.50;53.10;;;;;;5034000;28;20036;-47
2022/08/09 08:25:51;;;;;;;0.60;0.60;;;24.70;73.60;;;;;;5033754;28;20040;-45
2022/08/09 08:28:24;;;;;;;2.40;0.68;;;24.70;84.40;;;;;;5034293;28;20037;-48
2022/08/09 08:30:57;;;;;;;0.40;0.40;;;22.30;51.80;;;;;;5033908;28;20033;-45
2022/08/09 08:33:28;;;;;;;1.23;0.82;;;24.50;66.20;;;;;;5033725;28;20013;-45
2022/08/09 08:35:59;;;;;;;1.20;0.50;;;24.60;86.80;;;;;;5033565;28;20036;-45
2022/08/09 08:38:30;;;;;;;2.13;0.52;;;24.80;55.90;;;;;;5033577;28;20096;-52
2022/08/09 08:41:02;;;;;;;2.05;0.82;;;24.50;91.20;;;;;;5016035;28;20037;-50
2022/08/09 08:43:38;;;;;;;1.95;0.85;;;24.20;91.10;;;;;;5033178;28;20040;-46
2022/08/09 08:46:21;;;;;;;1.10;0.52;;;24.30;91.10;;;;;;5033120;28;20077;-45
2022/08/09 08:48:54;;;;;;;0.57;0.50;;;25.10;91.20;;;;;;5015640;28;20095;-44
2022/08/09 08:51:25;;;;;;;0.85;0.50;;;24.90;52.60;;;;;;5033324;28;20100;-44
2022/08/09 08:53:57;;;;;;;2.38;0.47;;;25.00;89.90;;;;;;5033576;28;20040;-44
2022/08/09 08:56:29;;;;;;;1.38;0.82;;;25.00;52.60;;;;;;5032857;28;20022;-44
2022/08/09 08:59:03;;;;;;;2.15;0.30;;;25.20;76.30;;;;;;5033076;28;20479;-45
2022/08/09 09:01:42;;;;;;;1.58;0.50;;;25.00;52.40;;;;;;5033137;28;20483;-44
2022/08/09 12:59:11;;;;;;;1.13;0.40;;;26.90;46.10;;;;;;5080217;28;20032;-53
2022/08/09 13:01:39;;;;;;;0.75;0.30;;;26.90;50.30;;;;;;5073083;28;20035;-52
2022/08/09 13:04:10;;;;;;;0.70;0.30;;;27.20;85.80;;;;;;5072855;28;20081;-54
2022/08/09 13:06:38;;;;;;;0.57;0.30;;;26.90;50.20;;;;;;5072883;28;20017;-52
2022/08/09 13:09:33;;;;;;;1.45;0.40;;;26.70;60.90;;;;;;5072840;28;20036;-52
2022/08/09 13:12:03;;;;;;;1.02;0.30;;;27.20;85.90;;;;;;5059523;28;20111;-55
2022/08/09 13:14:29;;;;;;;;;;;27.00;50.70;;;;;;5073516;28;20028;-54
2022/08/09 13:17:01;;;;;;;0.38;0.20;;;26.90;85.70;;;;;;5072729;28;19908;-55
2022/08/09 13:19:34;;;;;;;0.40;0.30;;;27.10;85.80;;;;;;5072786;28;20032;-52
2022/08/09 13:22:21;;;;;;;0.88;0.73;;;27.00;69.70;;;;;;5072928;28;20351;-54
2022/08/09 13:24:47;;;;;;;0.47;0.32;;;;;;;;;;5072572;28;20106;-54
2022/08/09 13:27:32;;;;;;;1.70;0.20;;;26.50;85.00;;;;;;5071875;28;20502;-52
2022/08/09 13:30:03;;;;;;;0.30;0.20;;;26.70;85.20;;;;;;5072667;28;20520;-52
2022/08/09 13:32:58;;;;;;;0.50;0.32;;;26.80;85.70;;;;;;5072568;28;20099;-54
2022/08/09 13:35:26;;;;;;;1.83;0.25;;;26.80;50.40;;;;;;5041853;28;20372;-55
2022/08/09 13:37:58;;;;;;;1.33;0.30;;;26.60;50.20;;;;;;5072519;28;20437;-56
2022/08/09 13:40:24;;;;;;;0.85;0.35;;;;;;;;;;5072513;28;20027;-56
2022/08/09 13:42:50;;;;;;;0.55;0.20;;;;;;;;;;5072451;28;20032;-49
2022/08/09 13:45:16;;;;;;;0.85;0.20;;;;;;;;;;5072332;28;20083;-53
2022/08/09 13:47:43;;;;;;;0.77;0.38;;;26.80;49.30;;;;;;5072451;28;20074;-55
2022/08/09 13:50:14;;;;;;;0.82;0.30;;;26.60;85.60;;;;;;5072339;28;20082;-56
2022/08/09 13:52:41;;;;;;;0.75;0.30;;;26.40;85.70;;;;;;5072607;28;20352;-55
2022/08/09 13:55:08;;;;;;;0.60;0.30;;;26.80;86.00;;;;;;5071967;28;20102;-55
2022/08/09 13:57:42;;;;;;;0.95;0.30;;;26.50;80.90;;;;;;5072229;28;20381;-55
2022/08/09 14:00:08;;;;;;;0.55;0.32;;;;;;;;;;5072040;28;20090;-53
2022/08/09 14:02:34;;;;;;;1.45;0.32;;;;;;;;;;5072422;28;20077;-55
2022/08/09 14:05:00;;;;;;;1.77;0.30;;;;;;;;;;5072378;28;20032;-51
2022/08/09 14:07:26;;;;;;;2.50;0.30;;;;;;;;;;5072144;28;20368;-52
2022/08/09 14:09:52;;;;;;;2.65;0.45;;;;;;;;;;5072068;28;20032;-55
2022/08/09 14:12:18;;;;;;;0.52;0.30;;;26.70;85.90;;;;;;5072014;28;20029;-53
2022/08/09 14:14:44;;;;;;;2.55;0.50;;;;;;;;;;5054066;28;20029;-53
2022/08/09 14:17:11;;;;;;;2.22;0.20;;;27.20;60.70;;;;;;5072018;28;20033;-52
2022/08/09 14:19:37;;;;;;;1.13;0.28;;;;;;;;;;5072494;28;20394;-50
2022/08/09 14:22:03;;;;;;;0.52;0.30;;;26.80;86.60;;;;;;5071950;28;20047;-52
2022/08/09 14:24:29;;;;;;;0.50;0.30;;;26.60;86.00;;;;;;5071966;28;20032;-51
2022/08/09 14:26:55;;;;;;;2.78;0.20;;;26.80;86.10;;;;;;5071946;28;20029;-51
2022/08/09 14:29:20;;;;;;;0.40;0.30;;;27.40;86.50;;;;;;5071849;28;20028;-56
2022/08/09 14:31:46;;;;;;;2.92;0.50;;;;;;;;;;5071850;28;20029;-53
2022/08/09 14:34:12;;;;;;;0.40;0.40;;;;;;;;;;5071766;28;20124;-52
2022/08/09 14:36:38;;;;;;;2.00;0.50;;;26.90;85.90;;;;;;5072044;28;20044;-52
2022/08/09 14:39:05;;;;;;;0.55;0.30;;;;;;;;;;5073099;28;20064;-52
2022/08/09 14:41:31;;;;;;;0.43;0.30;;;;;;;;;;5075721;28;20029;-53
2022/08/09 14:43:57;;;;;;;0.85;0.30;;;;;;;;;;5075614;28;20055;-53
2022/08/09 14:46:23;;;;;;;1.23;0.32;;;;;;;;;;5075607;28;20037;-52
2022/08/09 14:48:48;;;;;;;0.30;0.20;;;27.20;86.00;;;;;;5075532;28;20028;-51
2022/08/09 14:51:14;;;;;;;1.40;0.50;;;27.30;85.30;;;;;;5075481;28;20142;-54
2022/08/09 14:53:40;;;;;;;2.65;0.55;;;;;;;;;;5075335;28;20016;-54
2022/08/09 14:56:06;;;;;;;1.05;0.40;;;;;;;;;;5075308;28;20406;-53
2022/08/09 14:58:32;;;;;;;0.90;0.30;;;;;;;;;;5075362;28;20033;-54
2022/08/09 15:00:59;;;;;;;1.92;0.40;;;;;;;;;;5075342;28;20033;-53
2022/08/09 15:03:25;;;;;;;2.05;0.30;;;26.70;86.20;;;;;;5075175;28;20438;-54
2022/08/09 15:05:51;;;;;;;1.13;0.40;;;26.80;86.50;;;;;;5075162;28;20111;-52
2022/08/09 15:08:17;;;;;;;0.50;0.50;;;27.30;86.80;;;;;;5075107;28;20120;-53
2022/08/09 15:10:42;;;;;;;1.52;0.50;;;26.80;86.30;;;;;;5075159;28;20462;-52
2022/08/09 15:13:08;;;;;;;1.10;0.47;;;26.80;86.30;;;;;;5075022;28;20043;-52
2022/08/09 15:15:34;;;;;;;1.50;0.40;;;;;;;;;;5075045;28;20036;-52
2022/08/09 15:18:00;;;;;;;0.40;0.40;;;26.80;59.50;;;;;;5074882;28;20027;-55
2022/08/09 15:20:26;;;;;;;0.55;0.30;;;;;;;;;;5074966;28;20020;-53
2022/08/09 15:22:52;;;;;;;0.35;0.28;;;;;;;;;;5074859;28;20036;-55
2022/08/09 15:25:18;;;;;;;1.30;0.45;;;26.80;49.70;;;;;;5074767;28;20036;-53
2022/08/09 15:27:45;;;;;;;0.43;0.40;;;;;;;;;;5074795;28;20028;-55
2022/08/09 15:30:11;;;;;;;0.98;0.40;;;27.20;80.40;;;;;;5074725;28;20024;-55
2022/08/09 15:32:37;;;;;;;0.65;0.40;;;26.40;86.40;;;;;;5074642;28;20029;-55
2022/08/09 15:35:04;;;;;;;1.33;0.30;;;26.50;71.00;;;;;;5074481;28;20489;-54
2022/08/09 15:37:33;;;;;;;2.13;0.47;;;;;;;;;;5074284;28;20055;-55
2022/08/09 15:40:11;;;;;;;2.20;0.30;;;27.20;87.50;;;;;;5074675;28;20028;-52
2022/08/09 15:42:38;;;;;;;0.70;0.45;;;27.30;87.50;;;;;;5074314;28;20120;-52
2022/08/09 15:45:06;;;;;;;5.43;0.65;;;27.00;87.60;;;;;;5074439;28;20501;-51
2022/08/09 15:47:33;;;;;;;2.05;0.32;;;26.90;52.50;;;;;;5074534;28;20023;-54
2022/08/09 15:50:01;;;;;;;0.90;0.47;;;26.80;52.40;;;;;;5073803;28;20479;-53
2022/08/09 15:52:27;;;;;;;0.88;0.38;;;27.40;87.80;;;;;;5074119;28;20044;-54
2022/08/09 15:54:53;;;;;;;0.93;0.40;;;26.60;87.30;;;;;;5073999;28;20045;-52
2022/08/09 15:57:21;;;;;;;1.48;0.50;;;27.00;52.40;;;;;;5074246;28;20029;-52
2022/08/09 15:59:47;;;;;;;1.95;0.40;;;27.30;87.80;;;;;;5056139;28;20044;-55
2022/08/09 16:02:12;;;;;;;1.23;0.52;;;26.70;87.40;;;;;;5056123;28;20111;-55
2022/08/09 16:04:41;;;;;;;0.77;0.63;;;26.60;65.60;;;;;;5073871;28;20037;-53
2022/08/09 16:07:07;;;;;;;1.75;0.65;;;27.20;88.10;;;;;;5073998;28;20032;-54
2022/08/09 16:09:33;;;;;;;0.30;0.30;;;27.30;88.10;;;;;;5074122;28;20471;-55
2022/08/09 16:11:59;;;;;;;0.88;0.35;;;27.20;88.20;;;;;;5073833;28;20021;-55
2022/08/09 16:14:25;;;;;;;1.55;0.52;;;;;;;;;;5073936;28;20031;-55
2022/08/09 16:16:51;;;;;;;0.88;0.45;;;26.60;87.80;;;;;;5073854;28;20028;-55
2022/08/09 16:19:17;;;;;;;2.15;0.50;;;26.90;87.80;;;;;;5073921;28;20028;-55
2022/08/09 16:21:46;;;;;;;0.82;0.50;;;26.70;87.80;;;;;;5073768;28;20032;-55
2022/08/09 16:24:12;;;;;;;0.98;0.50;;;26.60;87.60;;;;;;5073714;28;20036;-53
2022/08/09 16:26:38;;;;;;;1.08;0.50;;;26.80;87.90;;;;;;5073649;28;20517;-51
2022/08/09 16:29:06;;;;;;;3.45;1.15;;;26.70;88.10;;;;;;5073465;28;20020;-55
2022/08/09 16:31:32;;;;;;;4.40;0.77;;;;;;;;;;5073411;28;20024;-55
2022/08/09 16:33:58;;;;;;;2.20;0.70;;;;;;;;;;5073413;28;20498;-55
2022/08/09 16:36:26;;;;;;;1.65;0.50;;;;;;;;;;5073414;28;20024;-54
2022/08/09 16:38:51;;;;;;;2.40;0.50;;;26.70;88.30;;;;;;5073007;28;20021;-55
2022/08/09 16:41:18;;;;;;;3.97;0.40;;;27.10;89.00;;;;;;5073126;28;20025;-53
2022/08/09 16:43:44;;;;;;;0.90;0.50;;;;;;;;;;5073183;28;20486;-53
2022/08/09 16:46:11;;;;;;;0.57;0.57;;;27.00;53.30;;;;;;5073227;28;20090;-55
2022/08/09 16:48:37;;;;;;;2.25;0.47;;;27.10;88.80;;;;;;5073262;28;20020;-54
2022/08/09 16:51:03;;;;;;;1.05;0.60;;;26.60;66.20;;;;;;5073224;28;20378;-56
2022/08/09 16:53:29;;;;;;;1.70;0.55;;;26.60;86.20;;;;;;5073201;28;20099;-55
2022/08/09 16:55:54;;;;;;;1.77;0.55;;;27.00;88.70;;;;;;5072884;28;20467;-56
2022/08/09 16:58:20;;;;;;;0.73;0.57;;;26.60;74.20;;;;;;5073037;28;20064;-53
2022/08/09 17:00:46;;;;;;;1.80;0.90;;;;;;;;;;5072983;28;20024;-55
2022/08/09 17:03:12;;;;;;;0.60;0.50;;;;;;;;;;5072840;28;20103;-55
2022/08/09 17:05:38;;;;;;;1.30;0.63;;;;;;;;;;5072879;28;20522;-55
2022/08/09 17:08:04;;;;;;;0.80;0.68;;;;;;;;;;5072913;28;20031;-55
2022/08/09 17:10:30;;;;;;;1.13;0.80;;;;;;;;;;5072925;28;20540;-54
2022/08/09 17:12:56;;;;;;;1.88;0.70;;;27.30;68.10;;;;;;5072805;28;20028;-55
2022/08/09 17:15:22;;;;;;;2.45;0.60;;;;;;;;;;5072809;28;20029;-53
2022/08/09 17:17:48;;;;;;;0.70;0.50;;;;;;;;;;5072690;28;20033;-55
2022/08/09 17:20:15;;;;;;;2.47;0.52;;;;;;;;;;5072708;28;20470;-54
2022/08/09 17:22:41;;;;;;;1.52;0.70;;;26.70;88.90;;;;;;5072629;28;20055;-52